sensor_id;sensor_type;location;lat;lon;timestamp;temperature;humidity
35970;DHT22;22448;51.298;6.430;2023-03-01T00:01:05;-1.00;99.90
35970;DHT22;22448;51.298;6.430;2023-03-01T00:03:33;-1.00;99.90
35970;DHT22;22448;51.298;6.430;2023-03-01T00:06:00;-1.00;99.90
35970;DHT22;22448;51.298;6.430;2023-03-01T00:08:27;-0.90;99.90
35970;DHT22;22448;51.298;6.430;2023-03-01T00:11:07;-0.90;99.90
35970;DHT22;22448;51.298;6.430;2023-03-01T00:13:35;-1.00;99.90
35970;DHT22;22448;51.298;6.430;2023-03-01T00:16:03;-1.00;99.90
35970;DHT22;22448;51.298;6.430;2023-03-01T00:18:31;-1.00;99.90
35970;DHT22;22448;51.298;6.430;2023-03-01T00:20:58;-1.00;99.90
35970;DHT22;22448;51.298;6.430;2023-03-01T00:23:26;-1.00;99.90
35970;DHT22;22448;51.298;6.430;2023-03-01T00:25:54;-1.00;99.90
35970;DHT22;22448;51.298;6.430;2023-03-01T00:28:21;-1.00;99.90
35970;DHT22;22448;51.298;6.430;2023-03-01T00:30:48;-1.10;99.90
35970;DHT22;22448;51.298;6.430;2023-03-01T00:33:16;-1.00;99.90
35970;DHT22;22448;51.298;6.430;2023-03-01T00:35:44;-1.10;99.90
35970;DHT22;22448;51.298;6.430;2023-03-01T00:38:11;-1.00;99.90
35970;DHT22;22448;51.298;6.430;2023-03-01T00:40:38;-1.00;99.90
35970;DHT22;22448;51.298;6.430;2023-03-01T00:43:05;-1.00;99.90
35970;DHT22;22448;51.298;6.430;2023-03-01T00:45:32;-1.00;99.90
35970;DHT22;22448;51.298;6.430;2023-03-01T00:48:00;-1.00;99.90
35970;DHT22;22448;51.298;6.430;2023-03-01T00:50:27;-1.10;99.90
35970;DHT22;22448;51.298;6.430;2023-03-01T00:52:55;-1.00;99.90
35970;DHT22;22448;51.298;6.430;2023-03-01T00:55:22;-1.10;99.90
35970;DHT22;22448;51.298;6.430;2023-03-01T00:57:49;-1.00;99.90
35970;DHT22;22448;51.298;6.430;2023-03-01T01:00:17;-1.10;99.90
35970;DHT22;22448;51.298;6.430;2023-03-01T01:02:44;-1.10;99.90
35970;DHT22;22448;51.298;6.430;2023-03-01T01:05:11;-1.10;99.90
35970;DHT22;22448;51.298;6.430;2023-03-01T01:07:38;-1.10;99.90
35970;DHT22;22448;51.298;6.430;2023-03-01T01:10:05;-1.20;99.90
35970;DHT22;22448;51.298;6.430;2023-03-01T01:12:33;-1.10;99.90
35970;DHT22;22448;51.298;6.430;2023-03-01T01:15:00;-1.20;99.90
35970;DHT22;22448;51.298;6.430;2023-03-01T01:17:27;-1.20;99.90
35970;DHT22;22448;51.298;6.430;2023-03-01T01:19:54;-1.30;99.90
35970;DHT22;22448;51.298;6.430;2023-03-01T01:22:21;-1.30;99.90
35970;DHT22;22448;51.298;6.430;2023-03-01T01:24:48;-1.30;99.90
35970;DHT22;22448;51.298;6.430;2023-03-01T01:27:15;-1.40;99.90
35970;DHT22;22448;51.298;6.430;2023-03-01T01:29:41;-1.40;99.90
35970;DHT22;22448;51.298;6.430;2023-03-01T01:32:09;-1.50;99.90
35970;DHT22;22448;51.298;6.430;2023-03-01T01:34:36;-1.50;99.90
35970;DHT22;22448;51.298;6.430;2023-03-01T01:37:03;-1.60;99.90
35970;DHT22;22448;51.298;6.430;2023-03-01T01:39:30;-1.60;99.90
35970;DHT22;22448;51.298;6.430;2023-03-01T01:41:56;-1.50;99.90
35970;DHT22;22448;51.298;6.430;2023-03-01T01:44:26;-1.50;99.90
35970;DHT22;22448;51.298;6.430;2023-03-01T01:47:00;-1.60;99.90
35970;DHT22;22448;51.298;6.430;2023-03-01T01:49:46;-1.60;99.90
35970;DHT22;22448;51.298;6.430;2023-03-01T01:52:20;-1.50;99.90
35970;DHT22;22448;51.298;6.430;2023-03-01T01:55:19;-1.60;99.90
35970;DHT22;22448;51.298;6.430;2023-03-01T01:57:54;-1.60;99.90
35970;DHT22;22448;51.298;6.430;2023-03-01T02:00:26;-1.60;99.90
35970;DHT22;22448;51.298;6.430;2023-03-01T02:03:00;-1.70;99.90
35970;DHT22;22448;51.298;6.430;2023-03-01T02:05:43;-1.70;99.90
35970;DHT22;22448;51.298;6.430;2023-03-01T02:08:13;-1.80;99.90
35970;DHT22;22448;51.298;6.430;2023-03-01T02:10:41;-1.80;99.90
35970;DHT22;22448;51.298;6.430;2023-03-01T02:13:09;-1.80;99.90
35970;DHT22;22448;51.298;6.430;2023-03-01T02:15:38;-1.90;99.90
35970;DHT22;22448;51.298;6.430;2023-03-01T02:18:07;-1.80;99.90
35970;DHT22;22448;51.298;6.430;2023-03-01T02:20:57;-1.90;99.90
35970;DHT22;22448;51.298;6.430;2023-03-01T02:23:27;-1.90;99.90
35970;DHT22;22448;51.298;6.430;2023-03-01T02:26:11;-1.90;99.90
35970;DHT22;22448;51.298;6.430;2023-03-01T02:28:43;-1.90;99.90
35970;DHT22;22448;51.298;6.430;2023-03-01T02:31:15;-1.90;99.90
35970;DHT22;22448;51.298;6.430;2023-03-01T02:34:01;-2.00;99.90
35970;DHT22;22448;51.298;6.430;2023-03-01T02:36:38;-1.90;99.90
35970;DHT22;22448;51.298;6.430;2023-03-01T02:39:07;-1.90;99.90
35970;DHT22;22448;51.298;6.430;2023-03-01T02:41:44;-1.90;99.90
35970;DHT22;22448;51.298;6.430;2023-03-01T02:44:12;-2.00;99.90
35970;DHT22;22448;51.298;6.430;2023-03-01T02:46:45;-1.90;99.90
35970;DHT22;22448;51.298;6.430;2023-03-01T02:49:26;-2.00;99.90
35970;DHT22;22448;51.298;6.430;2023-03-01T02:54:33;-2.20;99.90
35970;DHT22;22448;51.298;6.430;2023-03-01T02:57:03;-2.20;99.90
35970;DHT22;22448;51.298;6.430;2023-03-01T02:59:33;-2.30;99.90
35970;DHT22;22448;51.298;6.430;2023-03-01T03:02:17;-2.30;99.90
35970;DHT22;22448;51.298;6.430;2023-03-01T03:04:47;-2.30;99.90
35970;DHT22;22448;51.298;6.430;2023-03-01T03:07:14;-2.30;99.90
35970;DHT22;22448;51.298;6.430;2023-03-01T03:09:41;-2.20;99.90
35970;DHT22;22448;51.298;6.430;2023-03-01T03:12:08;-2.20;99.90
35970;DHT22;22448;51.298;6.430;2023-03-01T03:14:35;-2.30;99.90
35970;DHT22;22448;51.298;6.430;2023-03-01T03:17:03;-2.20;99.90
35970;DHT22;22448;51.298;6.430;2023-03-01T03:19:33;-2.20;99.90
35970;DHT22;22448;51.298;6.430;2023-03-01T03:22:00;-2.30;99.90
35970;DHT22;22448;51.298;6.430;2023-03-01T03:24:27;-2.30;99.90
35970;DHT22;22448;51.298;6.430;2023-03-01T03:27:05;-2.30;99.90
35970;DHT22;22448;51.298;6.430;2023-03-01T03:29:33;-2.20;99.90
35970;DHT22;22448;51.298;6.430;2023-03-01T03:32:00;-2.20;99.90
35970;DHT22;22448;51.298;6.430;2023-03-01T03:34:27;-2.20;99.90
35970;DHT22;22448;51.298;6.430;2023-03-01T03:36:55;-2.20;99.90
35970;DHT22;22448;51.298;6.430;2023-03-01T03:39:23;-2.20;99.90
35970;DHT22;22448;51.298;6.430;2023-03-01T03:41:50;-2.30;99.90
35970;DHT22;22448;51.298;6.430;2023-03-01T03:44:17;-2.30;99.90
35970;DHT22;22448;51.298;6.430;2023-03-01T03:46:44;-2.30;99.90
35970;DHT22;22448;51.298;6.430;2023-03-01T03:49:11;-2.30;99.90
35970;DHT22;22448;51.298;6.430;2023-03-01T03:51:38;-2.40;99.90
35970;DHT22;22448;51.298;6.430;2023-03-01T03:54:05;-2.30;99.90
35970;DHT22;22448;51.298;6.430;2023-03-01T03:56:32;-2.30;99.90
35970;DHT22;22448;51.298;6.430;2023-03-01T03:58:59;-2.30;99.90
35970;DHT22;22448;51.298;6.430;2023-03-01T04:01:26;-2.40;99.90
35970;DHT22;22448;51.298;6.430;2023-03-01T04:03:53;-2.40;99.90
35970;DHT22;22448;51.298;6.430;2023-03-01T04:06:21;-2.40;99.90
35970;DHT22;22448;51.298;6.430;2023-03-01T04:08:48;-2.40;99.90
35970;DHT22;22448;51.298;6.430;2023-03-01T04:11:17;-2.40;99.90
35970;DHT22;22448;51.298;6.430;2023-03-01T04:13:56;-2.30;99.90
35970;DHT22;22448;51.298;6.430;2023-03-01T04:16:24;-2.30;99.90
35970;DHT22;22448;51.298;6.430;2023-03-01T04:18:51;-2.30;99.90
35970;DHT22;22448;51.298;6.430;2023-03-01T04:21:20;-2.30;99.90
35970;DHT22;22448;51.298;6.430;2023-03-01T04:23:47;-2.40;99.90
35970;DHT22;22448;51.298;6.430;2023-03-01T04:26:14;-2.50;99.90
35970;DHT22;22448;51.298;6.430;2023-03-01T04:28:42;-2.50;99.90
35970;DHT22;22448;51.298;6.430;2023-03-01T04:31:15;-2.50;99.90
35970;DHT22;22448;51.298;6.430;2023-03-01T04:33:46;-2.50;99.90
35970;DHT22;22448;51.298;6.430;2023-03-01T04:36:15;-2.50;99.90
35970;DHT22;22448;51.298;6.430;2023-03-01T04:38:43;-2.50;99.90
35970;DHT22;22448;51.298;6.430;2023-03-01T04:41:16;-2.60;99.90
35970;DHT22;22448;51.298;6.430;2023-03-01T04:43:44;-2.60;99.90
35970;DHT22;22448;51.298;6.430;2023-03-01T04:46:13;-2.70;99.90
35970;DHT22;22448;51.298;6.430;2023-03-01T04:48:42;-2.70;99.90
35970;DHT22;22448;51.298;6.430;2023-03-01T04:51:10;-2.70;99.90
35970;DHT22;22448;51.298;6.430;2023-03-01T04:53:40;-2.70;99.90
35970;DHT22;22448;51.298;6.430;2023-03-01T04:56:08;-2.70;99.90
35970;DHT22;22448;51.298;6.430;2023-03-01T04:58:35;-2.70;99.90
35970;DHT22;22448;51.298;6.430;2023-03-01T05:01:09;-2.80;99.90
35970;DHT22;22448;51.298;6.430;2023-03-01T05:03:43;-2.80;99.90
35970;DHT22;22448;51.298;6.430;2023-03-01T05:06:11;-2.80;99.90
35970;DHT22;22448;51.298;6.430;2023-03-01T05:08:39;-2.80;99.90
35970;DHT22;22448;51.298;6.430;2023-03-01T05:11:06;-2.80;99.90
35970;DHT22;22448;51.298;6.430;2023-03-01T05:13:36;-2.90;99.90
35970;DHT22;22448;51.298;6.430;2023-03-01T05:16:04;-2.80;99.90
35970;DHT22;22448;51.298;6.430;2023-03-01T05:18:33;-2.80;99.90
35970;DHT22;22448;51.298;6.430;2023-03-01T05:21:06;-2.80;99.90
35970;DHT22;22448;51.298;6.430;2023-03-01T05:23:34;-2.80;99.90
35970;DHT22;22448;51.298;6.430;2023-03-01T05:26:02;-2.90;99.90
35970;DHT22;22448;51.298;6.430;2023-03-01T05:28:33;-2.90;99.90
35970;DHT22;22448;51.298;6.430;2023-03-01T05:31:00;-2.80;99.90
35970;DHT22;22448;51.298;6.430;2023-03-01T05:33:27;-2.90;99.90
35970;DHT22;22448;51.298;6.430;2023-03-01T05:35:59;-2.90;99.90
35970;DHT22;22448;51.298;6.430;2023-03-01T05:38:26;-2.90;99.90
35970;DHT22;22448;51.298;6.430;2023-03-01T05:40:53;-2.90;99.90
35970;DHT22;22448;51.298;6.430;2023-03-01T05:43:20;-2.90;99.90
35970;DHT22;22448;51.298;6.430;2023-03-01T05:45:47;-3.00;99.90
35970;DHT22;22448;51.298;6.430;2023-03-01T05:48:14;-3.00;99.90
35970;DHT22;22448;51.298;6.430;2023-03-01T05:50:43;-3.00;99.90
35970;DHT22;22448;51.298;6.430;2023-03-01T05:53:19;-3.00;99.90
35970;DHT22;22448;51.298;6.430;2023-03-01T05:55:49;-3.00;99.90
35970;DHT22;22448;51.298;6.430;2023-03-01T05:58:19;-3.00;99.90
35970;DHT22;22448;51.298;6.430;2023-03-01T06:00:47;-3.00;99.90
35970;DHT22;22448;51.298;6.430;2023-03-01T06:03:16;-3.00;99.90
35970;DHT22;22448;51.298;6.430;2023-03-01T06:05:43;-3.00;99.90
35970;DHT22;22448;51.298;6.430;2023-03-01T06:08:11;-3.00;99.90
35970;DHT22;22448;51.298;6.430;2023-03-01T06:10:39;-3.00;99.90
35970;DHT22;22448;51.298;6.430;2023-03-01T06:13:06;-3.00;99.90
35970;DHT22;22448;51.298;6.430;2023-03-01T06:15:33;-3.00;99.90
35970;DHT22;22448;51.298;6.430;2023-03-01T06:18:00;-3.00;99.90
35970;DHT22;22448;51.298;6.430;2023-03-01T06:20:28;-3.00;99.90
35970;DHT22;22448;51.298;6.430;2023-03-01T06:22:55;-3.00;99.90
35970;DHT22;22448;51.298;6.430;2023-03-01T06:25:24;-3.00;99.90
35970;DHT22;22448;51.298;6.430;2023-03-01T06:27:51;-3.00;99.90
35970;DHT22;22448;51.298;6.430;2023-03-01T06:30:20;-3.00;99.90
35970;DHT22;22448;51.298;6.430;2023-03-01T06:32:48;-3.00;99.90
35970;DHT22;22448;51.298;6.430;2023-03-01T06:35:17;-3.00;99.90
35970;DHT22;22448;51.298;6.430;2023-03-01T06:37:46;-3.00;99.90
35970;DHT22;22448;51.298;6.430;2023-03-01T06:40:14;-3.00;99.90
35970;DHT22;22448;51.298;6.430;2023-03-01T06:42:43;-2.90;99.90
35970;DHT22;22448;51.298;6.430;2023-03-01T06:45:14;-2.90;99.90
35970;DHT22;22448;51.298;6.430;2023-03-01T06:47:41;-2.90;99.90
35970;DHT22;22448;51.298;6.430;2023-03-01T06:50:09;-2.90;99.90
35970;DHT22;22448;51.298;6.430;2023-03-01T06:52:36;-2.80;99.90
35970;DHT22;22448;51.298;6.430;2023-03-01T06:55:04;-2.80;99.90
35970;DHT22;22448;51.298;6.430;2023-03-01T06:57:31;-2.70;99.90
35970;DHT22;22448;51.298;6.430;2023-03-01T06:59:58;-2.70;99.90
35970;DHT22;22448;51.298;6.430;2023-03-01T07:02:25;-2.70;99.90
35970;DHT22;22448;51.298;6.430;2023-03-01T07:04:52;-2.60;99.90
35970;DHT22;22448;51.298;6.430;2023-03-01T07:07:19;-2.50;99.90
35970;DHT22;22448;51.298;6.430;2023-03-01T07:09:47;-2.40;99.90
35970;DHT22;22448;51.298;6.430;2023-03-01T07:12:16;-2.40;99.90
35970;DHT22;22448;51.298;6.430;2023-03-01T07:14:44;-2.30;99.90
35970;DHT22;22448;51.298;6.430;2023-03-01T07:17:11;-2.20;99.90
35970;DHT22;22448;51.298;6.430;2023-03-01T07:19:38;-2.20;99.90
35970;DHT22;22448;51.298;6.430;2023-03-01T07:22:05;-2.10;99.90
35970;DHT22;22448;51.298;6.430;2023-03-01T07:24:34;-2.00;99.90
35970;DHT22;22448;51.298;6.430;2023-03-01T07:27:01;-1.70;99.90
35970;DHT22;22448;51.298;6.430;2023-03-01T07:29:28;-1.10;99.90
35970;DHT22;22448;51.298;6.430;2023-03-01T07:31:56;-0.50;99.90
35970;DHT22;22448;51.298;6.430;2023-03-01T07:34:24;-0.10;99.90
35970;DHT22;22448;51.298;6.430;2023-03-01T07:36:51;0.40;99.90
35970;DHT22;22448;51.298;6.430;2023-03-01T07:39:17;0.80;99.90
35970;DHT22;22448;51.298;6.430;2023-03-01T07:41:45;1.00;99.90
35970;DHT22;22448;51.298;6.430;2023-03-01T07:44:12;1.30;99.90
35970;DHT22;22448;51.298;6.430;2023-03-01T07:46:39;1.50;99.90
35970;DHT22;22448;51.298;6.430;2023-03-01T07:49:06;1.50;99.90
35970;DHT22;22448;51.298;6.430;2023-03-01T07:51:36;1.20;99.90
35970;DHT22;22448;51.298;6.430;2023-03-01T07:54:03;1.20;99.90
35970;DHT22;22448;51.298;6.430;2023-03-01T07:56:30;2.30;99.90
35970;DHT22;22448;51.298;6.430;2023-03-01T07:58:59;2.20;99.90
35970;DHT22;22448;51.298;6.430;2023-03-01T08:01:26;2.70;99.90
35970;DHT22;22448;51.298;6.430;2023-03-01T08:03:53;1.90;99.90
35970;DHT22;22448;51.298;6.430;2023-03-01T08:06:20;1.80;99.90
35970;DHT22;22448;51.298;6.430;2023-03-01T08:08:47;1.90;99.90
35970;DHT22;22448;51.298;6.430;2023-03-01T08:11:15;1.70;99.90
35970;DHT22;22448;51.298;6.430;2023-03-01T08:13:43;1.70;99.90
35970;DHT22;22448;51.298;6.430;2023-03-01T08:16:12;2.40;99.90
35970;DHT22;22448;51.298;6.430;2023-03-01T08:18:40;2.30;99.90
35970;DHT22;22448;51.298;6.430;2023-03-01T08:21:10;2.40;99.90
35970;DHT22;22448;51.298;6.430;2023-03-01T08:23:38;2.50;99.90
35970;DHT22;22448;51.298;6.430;2023-03-01T08:26:12;3.00;99.90
35970;DHT22;22448;51.298;6.430;2023-03-01T08:28:40;3.10;99.90
35970;DHT22;22448;51.298;6.430;2023-03-01T08:31:38;3.20;99.90
35970;DHT22;22448;51.298;6.430;2023-03-01T08:34:07;3.20;99.90
35970;DHT22;22448;51.298;6.430;2023-03-01T08:36:37;3.20;99.90
35970;DHT22;22448;51.298;6.430;2023-03-01T08:39:06;3.10;99.90
35970;DHT22;22448;51.298;6.430;2023-03-01T08:41:33;3.10;99.90
35970;DHT22;22448;51.298;6.430;2023-03-01T08:44:00;3.10;99.90
35970;DHT22;22448;51.298;6.430;2023-03-01T08:46:29;3.30;99.90
35970;DHT22;22448;51.298;6.430;2023-03-01T08:48:57;3.90;99.90
35970;DHT22;22448;51.298;6.430;2023-03-01T08:51:25;4.40;99.90
35970;DHT22;22448;51.298;6.430;2023-03-01T08:53:54;5.10;99.90
35970;DHT22;22448;51.298;6.430;2023-03-01T08:56:20;5.10;99.90
35970;DHT22;22448;51.298;6.430;2023-03-01T08:58:48;5.00;99.90
35970;DHT22;22448;51.298;6.430;2023-03-01T09:01:18;5.00;99.90
35970;DHT22;22448;51.298;6.430;2023-03-01T09:03:46;5.30;99.90
35970;DHT22;22448;51.298;6.430;2023-03-01T09:06:13;5.50;99.90
35970;DHT22;22448;51.298;6.430;2023-03-01T09:08:42;5.50;99.90
35970;DHT22;22448;51.298;6.430;2023-03-01T09:11:12;5.30;99.90
35970;DHT22;22448;51.298;6.430;2023-03-01T09:13:39;5.10;99.90
35970;DHT22;22448;51.298;6.430;2023-03-01T09:16:11;5.20;99.90
35970;DHT22;22448;51.298;6.430;2023-03-01T09:18:39;5.10;99.90
35970;DHT22;22448;51.298;6.430;2023-03-01T09:21:15;5.10;99.90
35970;DHT22;22448;51.298;6.430;2023-03-01T09:23:44;5.00;99.90
35970;DHT22;22448;51.298;6.430;2023-03-01T09:26:13;5.20;99.90
35970;DHT22;22448;51.298;6.430;2023-03-01T09:28:43;5.10;99.90
35970;DHT22;22448;51.298;6.430;2023-03-01T09:31:13;5.10;99.90
35970;DHT22;22448;51.298;6.430;2023-03-01T09:33:42;5.10;99.90
35970;DHT22;22448;51.298;6.430;2023-03-01T09:36:14;4.90;99.90
35970;DHT22;22448;51.298;6.430;2023-03-01T09:38:42;4.80;99.90
35970;DHT22;22448;51.298;6.430;2023-03-01T09:43:47;4.50;99.90
35970;DHT22;22448;51.298;6.430;2023-03-01T09:46:23;4.50;99.90
35970;DHT22;22448;51.298;6.430;2023-03-01T09:48:56;4.40;99.90
35970;DHT22;22448;51.298;6.430;2023-03-01T09:51:30;4.30;99.90
35970;DHT22;22448;51.298;6.430;2023-03-01T09:53:58;4.30;99.90
35970;DHT22;22448;51.298;6.430;2023-03-01T09:56:37;4.20;99.90
35970;DHT22;22448;51.298;6.430;2023-03-01T09:59:44;4.20;99.90
35970;DHT22;22448;51.298;6.430;2023-03-01T10:02:25;4.20;99.90
35970;DHT22;22448;51.298;6.430;2023-03-01T10:04:57;4.20;99.90
35970;DHT22;22448;51.298;6.430;2023-03-01T10:10:21;4.20;99.90
35970;DHT22;22448;51.298;6.430;2023-03-01T10:12:50;4.20;99.90
35970;DHT22;22448;51.298;6.430;2023-03-01T10:15:34;4.30;99.90
35970;DHT22;22448;51.298;6.430;2023-03-01T10:18:18;4.20;99.90
35970;DHT22;22448;51.298;6.430;2023-03-01T10:20:55;4.10;99.90
35970;DHT22;22448;51.298;6.430;2023-03-01T10:23:24;4.20;99.90
35970;DHT22;22448;51.298;6.430;2023-03-01T10:29:08;4.20;99.90
35970;DHT22;22448;51.298;6.430;2023-03-01T10:31:51;4.30;99.90
35970;DHT22;22448;51.298;6.430;2023-03-01T10:34:31;4.40;99.90
35970;DHT22;22448;51.298;6.430;2023-03-01T10:37:12;4.50;99.90
35970;DHT22;22448;51.298;6.430;2023-03-01T10:40:06;4.50;99.90
35970;DHT22;22448;51.298;6.430;2023-03-01T10:42:45;4.70;99.90
35970;DHT22;22448;51.298;6.430;2023-03-01T10:48:18;5.00;99.90
35970;DHT22;22448;51.298;6.430;2023-03-01T10:50:50;5.10;99.90
35970;DHT22;22448;51.298;6.430;2023-03-01T10:53:36;5.20;99.90
35970;DHT22;22448;51.298;6.430;2023-03-01T10:56:10;5.20;99.90
35970;DHT22;22448;51.298;6.430;2023-03-01T10:58:40;5.30;99.90
35970;DHT22;22448;51.298;6.430;2023-03-01T11:01:26;5.20;99.90
35970;DHT22;22448;51.298;6.430;2023-03-01T11:06:34;5.20;99.90
35970;DHT22;22448;51.298;6.430;2023-03-01T11:09:21;5.20;99.90
35970;DHT22;22448;51.298;6.430;2023-03-01T11:11:56;5.30;99.90
35970;DHT22;22448;51.298;6.430;2023-03-01T11:14:26;5.50;99.90
35970;DHT22;22448;51.298;6.430;2023-03-01T11:17:10;5.50;99.90
35970;DHT22;22448;51.298;6.430;2023-03-01T11:19:38;5.50;99.90
35970;DHT22;22448;51.298;6.430;2023-03-01T11:22:12;5.60;99.90
35970;DHT22;22448;51.298;6.430;2023-03-01T11:24:42;5.80;99.90
35970;DHT22;22448;51.298;6.430;2023-03-01T11:27:21;5.80;99.80
35970;DHT22;22448;51.298;6.430;2023-03-01T11:30:00;5.90;99.60
35970;DHT22;22448;51.298;6.430;2023-03-01T11:32:35;6.10;99.10
35970;DHT22;22448;51.298;6.430;2023-03-01T11:35:16;6.10;98.80
35970;DHT22;22448;51.298;6.430;2023-03-01T11:43:11;6.00;98.50
35970;DHT22;22448;51.298;6.430;2023-03-01T11:57:00;6.40;98.30
35970;DHT22;22448;51.298;6.430;2023-03-01T12:05:18;7.10;95.80
35970;DHT22;22448;51.298;6.430;2023-03-01T12:08:14;7.20;96.00
35970;DHT22;22448;51.298;6.430;2023-03-01T12:14:01;7.40;95.80
35970;DHT22;22448;51.298;6.430;2023-03-01T12:19:14;7.00;95.70
35970;DHT22;22448;51.298;6.430;2023-03-01T12:29:55;6.80;95.90
35970;DHT22;22448;51.298;6.430;2023-03-01T12:35:14;6.60;96.00
35970;DHT22;22448;51.298;6.430;2023-03-01T12:37:47;6.60;96.40
35970;DHT22;22448;51.298;6.430;2023-03-01T12:43:32;6.60;95.60
35970;DHT22;22448;51.298;6.430;2023-03-01T12:49:08;6.60;95.70
35970;DHT22;22448;51.298;6.430;2023-03-01T12:51:37;6.50;95.60
35970;DHT22;22448;51.298;6.430;2023-03-01T12:54:16;6.50;96.30
35970;DHT22;22448;51.298;6.430;2023-03-01T12:56:47;6.50;96.80
35970;DHT22;22448;51.298;6.430;2023-03-01T12:59:39;6.50;95.90
35970;DHT22;22448;51.298;6.430;2023-03-01T13:07:52;6.50;96.00
35970;DHT22;22448;51.298;6.430;2023-03-01T13:10:32;6.50;95.50
35970;DHT22;22448;51.298;6.430;2023-03-01T13:15:32;6.60;95.30
35970;DHT22;22448;51.298;6.430;2023-03-01T13:18:11;6.70;94.60
35970;DHT22;22448;51.298;6.430;2023-03-01T13:20:54;6.70;94.90
35970;DHT22;22448;51.298;6.430;2023-03-01T13:23:37;6.70;95.40
35970;DHT22;22448;51.298;6.430;2023-03-01T13:26:14;6.70;96.20
35970;DHT22;22448;51.298;6.430;2023-03-01T13:34:02;6.70;95.60
35970;DHT22;22448;51.298;6.430;2023-03-01T13:49:43;6.90;96.10
35970;DHT22;22448;51.298;6.430;2023-03-01T13:55:23;6.90;97.20
35970;DHT22;22448;51.298;6.430;2023-03-01T13:57:58;7.00;97.50
35970;DHT22;22448;51.298;6.430;2023-03-01T14:00:33;7.00;96.90
35970;DHT22;22448;51.298;6.430;2023-03-01T14:05:35;7.00;96.70
35970;DHT22;22448;51.298;6.430;2023-03-01T14:08:04;6.90;96.30
35970;DHT22;22448;51.298;6.430;2023-03-01T14:10:49;6.90;96.50
35970;DHT22;22448;51.298;6.430;2023-03-01T14:13:30;6.90;95.60
35970;DHT22;22448;51.298;6.430;2023-03-01T14:21:41;7.00;96.10
35970;DHT22;22448;51.298;6.430;2023-03-01T14:24:20;7.00;95.80
35970;DHT22;22448;51.298;6.430;2023-03-01T14:26:49;7.00;95.70
35970;DHT22;22448;51.298;6.430;2023-03-01T14:29:26;7.00;96.30
35970;DHT22;22448;51.298;6.430;2023-03-01T14:31:54;7.10;95.40
35970;DHT22;22448;51.298;6.430;2023-03-01T14:34:23;7.10;95.20
35970;DHT22;22448;51.298;6.430;2023-03-01T14:36:50;7.10;95.40
35970;DHT22;22448;51.298;6.430;2023-03-01T14:39:19;7.20;95.20
35970;DHT22;22448;51.298;6.430;2023-03-01T14:41:47;7.10;95.40
35970;DHT22;22448;51.298;6.430;2023-03-01T14:44:21;7.20;94.90
35970;DHT22;22448;51.298;6.430;2023-03-01T14:46:53;7.20;94.30
35970;DHT22;22448;51.298;6.430;2023-03-01T14:49:25;7.10;94.70
35970;DHT22;22448;51.298;6.430;2023-03-01T14:52:02;7.00;94.80
35970;DHT22;22448;51.298;6.430;2023-03-01T14:54:42;7.00;94.50
35970;DHT22;22448;51.298;6.430;2023-03-01T14:57:16;6.90;94.50
35970;DHT22;22448;51.298;6.430;2023-03-01T14:59:43;6.90;95.20
35970;DHT22;22448;51.298;6.430;2023-03-01T15:02:19;6.80;94.70
35970;DHT22;22448;51.298;6.430;2023-03-01T15:04:48;6.70;95.70
35970;DHT22;22448;51.298;6.430;2023-03-01T15:07:16;6.70;95.70
35970;DHT22;22448;51.298;6.430;2023-03-01T15:09:44;6.60;95.10
35970;DHT22;22448;51.298;6.430;2023-03-01T15:14:57;6.60;95.80
35970;DHT22;22448;51.298;6.430;2023-03-01T15:17:35;6.60;96.20
35970;DHT22;22448;51.298;6.430;2023-03-01T15:20:07;6.70;95.30
35970;DHT22;22448;51.298;6.430;2023-03-01T15:22:35;6.80;95.40
35970;DHT22;22448;51.298;6.430;2023-03-01T15:25:02;6.80;95.20
35970;DHT22;22448;51.298;6.430;2023-03-01T15:27:29;6.80;95.50
35970;DHT22;22448;51.298;6.430;2023-03-01T15:29:58;6.70;96.20
35970;DHT22;22448;51.298;6.430;2023-03-01T15:32:36;6.70;95.80
35970;DHT22;22448;51.298;6.430;2023-03-01T15:40:57;6.60;96.40
35970;DHT22;22448;51.298;6.430;2023-03-01T15:43:43;6.60;96.60
35970;DHT22;22448;51.298;6.430;2023-03-01T15:46:22;6.60;96.40
35970;DHT22;22448;51.298;6.430;2023-03-01T15:48:54;6.60;96.30
35970;DHT22;22448;51.298;6.430;2023-03-01T15:51:36;6.50;97.00
35970;DHT22;22448;51.298;6.430;2023-03-01T15:54:10;6.30;96.30
35970;DHT22;22448;51.298;6.430;2023-03-01T15:56:39;6.20;96.70
35970;DHT22;22448;51.298;6.430;2023-03-01T15:59:09;6.10;97.60
35970;DHT22;22448;51.298;6.430;2023-03-01T16:01:38;6.10;97.10
35970;DHT22;22448;51.298;6.430;2023-03-01T16:04:05;6.10;97.10
35970;DHT22;22448;51.298;6.430;2023-03-01T16:06:32;6.00;97.50
35970;DHT22;22448;51.298;6.430;2023-03-01T16:09:00;6.00;97.90
35970;DHT22;22448;51.298;6.430;2023-03-01T16:11:27;5.90;98.10
35970;DHT22;22448;51.298;6.430;2023-03-01T16:13:54;5.80;98.90
35970;DHT22;22448;51.298;6.430;2023-03-01T16:16:21;5.80;98.40
35970;DHT22;22448;51.298;6.430;2023-03-01T16:18:49;5.70;98.50
35970;DHT22;22448;51.298;6.430;2023-03-01T16:21:20;5.70;98.30
35970;DHT22;22448;51.298;6.430;2023-03-01T16:23:48;5.60;98.70
35970;DHT22;22448;51.298;6.430;2023-03-01T16:26:15;5.60;98.80
35970;DHT22;22448;51.298;6.430;2023-03-01T16:28:44;5.60;98.30
35970;DHT22;22448;51.298;6.430;2023-03-01T16:31:13;5.50;98.50
35970;DHT22;22448;51.298;6.430;2023-03-01T16:33:43;5.50;98.60
35970;DHT22;22448;51.298;6.430;2023-03-01T16:36:18;5.50;99.80
35970;DHT22;22448;51.298;6.430;2023-03-01T16:38:46;5.40;99.80
35970;DHT22;22448;51.298;6.430;2023-03-01T16:41:18;5.20;99.70
35970;DHT22;22448;51.298;6.430;2023-03-01T16:43:46;5.20;99.30
35970;DHT22;22448;51.298;6.430;2023-03-01T16:46:16;5.20;99.50
35970;DHT22;22448;51.298;6.430;2023-03-01T16:48:43;5.20;98.60
35970;DHT22;22448;51.298;6.430;2023-03-01T16:51:10;5.20;99.10
35970;DHT22;22448;51.298;6.430;2023-03-01T16:53:38;5.10;99.60
35970;DHT22;22448;51.298;6.430;2023-03-01T16:56:07;5.10;99.80
35970;DHT22;22448;51.298;6.430;2023-03-01T16:58:35;4.90;99.90
35970;DHT22;22448;51.298;6.430;2023-03-01T17:01:17;4.90;99.60
35970;DHT22;22448;51.298;6.430;2023-03-01T17:03:46;4.80;99.90
35970;DHT22;22448;51.298;6.430;2023-03-01T17:06:16;4.80;99.90
35970;DHT22;22448;51.298;6.430;2023-03-01T17:08:43;4.70;99.90
35970;DHT22;22448;51.298;6.430;2023-03-01T17:11:13;4.60;99.90
35970;DHT22;22448;51.298;6.430;2023-03-01T17:13:40;4.60;99.90
35970;DHT22;22448;51.298;6.430;2023-03-01T17:16:11;4.50;99.90
35970;DHT22;22448;51.298;6.430;2023-03-01T17:18:39;4.50;99.90
35970;DHT22;22448;51.298;6.430;2023-03-01T17:21:07;4.50;99.90
35970;DHT22;22448;51.298;6.430;2023-03-01T17:23:35;4.40;99.90
35970;DHT22;22448;51.298;6.430;2023-03-01T17:26:03;4.30;99.90
35970;DHT22;22448;51.298;6.430;2023-03-01T17:28:31;4.30;99.90
35970;DHT22;22448;51.298;6.430;2023-03-01T17:30:59;4.20;99.90
35970;DHT22;22448;51.298;6.430;2023-03-01T17:33:27;4.10;99.90
35970;DHT22;22448;51.298;6.430;2023-03-01T17:35:57;4.10;99.90
35970;DHT22;22448;51.298;6.430;2023-03-01T17:38:24;4.00;99.90
35970;DHT22;22448;51.298;6.430;2023-03-01T17:40:51;4.00;99.90
35970;DHT22;22448;51.298;6.430;2023-03-01T17:43:18;4.00;99.90
35970;DHT22;22448;51.298;6.430;2023-03-01T17:45:46;3.90;99.90
35970;DHT22;22448;51.298;6.430;2023-03-01T17:48:15;3.90;99.90
35970;DHT22;22448;51.298;6.430;2023-03-01T17:50:43;3.90;99.90